Time;durP1;ratioP1;P1;durP2;ratioP2;P2;SDS_P1;SDS_P2;PMS_P1;PMS_P2;Temp;Humidity;BMP_temperature;BMP_pressure;BME280_temperature;BME280_humidity;BME280_pressure;Samples;Min_cycle;Max_cycle;Signal;HPM_P1;HPM_P2
2021/04/28 00:02:11;;;;;;;23.00;8.77;;;;;;;;;;5113317;28;20031;-76
2021/04/28 00:04:37;;;;;;;22.27;9.15;;;;;;;;;;5093493;28;20024;-76
2021/04/28 00:07:04;;;;;;;20.40;9.05;;;;;;;;;;5093249;28;20103;-76
2021/04/28 00:09:31;;;;;;;22.63;8.82;;;;;;;;;;5093108;28;20035;-76
2021/04/28 00:11:57;;;;;;;20.95;9.20;;;;;;;;;;5092715;28;20475;-76
2021/04/28 00:14:23;;;;;;;18.75;8.52;;;;;;;;;;5093276;28;20031;-76
2021/04/28 00:16:49;;;;;;;23.90;8.77;;;;;;;;;;5093173;28;20020;-76
2021/04/28 00:19:16;;;;;;;21.30;8.90;;;;;;;;;;5093592;28;20020;-76
2021/04/28 00:21:45;;;;;;;20.67;9.48;;;;;;;;;;5092339;28;20024;-77
2021/04/28 00:24:14;;;;;;;26.27;10.02;;;;;;;;;;5093162;28;20024;-76
2021/04/28 00:26:40;;;;;;;22.42;10.57;;;;;;;;;;5113073;28;20390;-76
2021/04/28 00:29:06;;;;;;;25.80;10.82;;;;;;;;;;5113811;28;20038;-76
2021/04/28 00:31:33;;;;;;;28.23;9.82;;;;;;;;;;5094203;28;20028;-76
2021/04/28 00:34:00;;;;;;;20.15;9.63;;;;;;;;;;5113186;28;20038;-76
2021/04/28 00:36:26;;;;;;;24.85;10.27;;;;;;;;;;5113473;28;20042;-76
2021/04/28 00:38:52;;;;;;;22.15;9.82;;;;;;;;;;5113702;28;20047;-76
2021/04/28 00:41:18;;;;;;;27.00;10.43;;;;;;;;;;5113154;28;20023;-76
2021/04/28 00:43:44;;;;;;;22.05;10.60;;;;;;;;;;5094316;28;20035;-76
2021/04/28 00:46:11;;;;;;;23.30;9.90;;;;;;;;;;5113340;28;20054;-76
2021/04/28 00:48:37;;;;;;;22.80;10.10;;;;;;;;;;5094737;28;20472;-76
2021/04/28 00:51:03;;;;;;;17.33;10.25;;;;;;;;;;5094828;28;20119;-77
2021/04/28 00:53:30;;;;;;;27.45;11.07;;;;;;;;;;5113204;28;20469;-76
2021/04/28 00:55:57;;;;;;;24.55;10.35;;;;;;;;;;5113209;28;20035;-76
2021/04/28 00:58:24;;;;;;;23.70;9.63;;;;;;;;;;5112848;28;20023;-76
2021/04/28 01:00:50;;;;;;;22.17;9.93;;;;;;;;;;5113225;28;20020;-76
2021/04/28 01:03:20;;;;;;;24.98;11.18;;;;;;;;;;5112850;28;20024;-76
2021/04/28 01:05:46;;;;;;;22.80;10.63;;;;;;;;;;5115987;28;20114;-76
2021/04/28 01:08:15;;;;;;;24.70;11.25;;;;;;;;;;5116936;28;20028;-76
2021/04/28 01:10:41;;;;;;;24.10;10.98;;;;;;;;;;5117182;28;20024;-76
2021/04/28 01:13:08;;;;;;;23.17;10.35;;;;;;;;;;5117197;28;20066;-76
2021/04/28 01:15:35;;;;;;;22.73;10.63;;;;;;;;;;5098603;28;20073;-76
2021/04/28 01:18:03;;;;;;;27.10;10.57;;;;;;;;;;5098852;28;20034;-76
2021/04/28 01:20:32;;;;;;;32.70;11.98;;;;;;;;;;5117018;28;20026;-76
2021/04/28 01:22:58;;;;;;;24.00;11.90;;;;;;;;;;5117019;28;20470;-76
2021/04/28 01:25:25;;;;;;;26.35;11.07;;;;;;;;;;5116844;28;20019;-76
2021/04/28 01:27:55;;;;;;;20.23;10.70;;;;;;;;;;5098464;28;20024;-76
2021/04/28 01:30:22;;;;;;;19.70;10.45;;;;;;;;;;5098605;28;20024;-76
2021/04/28 01:32:49;;;;;;;23.95;10.10;;;;;;;;;;5098245;28;20063;-76
2021/04/28 01:35:16;;;;;;;21.83;10.10;;;;;;;;;;5126537;27;20044;-76
2021/04/28 01:37:43;;;;;;;24.52;10.27;;;;;;;;;;5136924;27;20108;-76
2021/04/28 01:40:10;;;;;;;22.95;9.63;;;;;;;;;;5119098;27;20478;-76
2021/04/28 01:42:36;;;;;;;19.65;10.40;;;;;;;;;;5118419;27;20038;-76
2021/04/28 01:45:02;;;;;;;25.23;10.18;;;;;;;;;;5137075;27;20023;-76
2021/04/28 01:47:29;;;;;;;19.10;9.88;;;;;;;;;;5136812;27;20027;-76
2021/04/28 01:49:55;;;;;;;25.88;10.45;;;;;;;;;;5136802;27;20063;-76
2021/04/28 01:52:21;;;;;;;20.70;10.70;;;;;;;;;;5136264;27;20034;-76
2021/04/28 01:54:48;;;;;;;23.88;9.55;;;;;;;;;;5137118;27;20424;-76
2021/04/28 01:57:15;;;;;;;19.63;9.27;;;;;;;;;;5136730;27;20104;-76
2021/04/28 01:59:41;;;;;;;17.83;9.25;;;;;;;;;;5136591;27;20111;-76
2021/04/28 02:02:09;;;;;;;15.60;8.55;;;;;;;;;;5117868;27;20117;-76
2021/04/28 02:04:36;;;;;;;21.30;8.48;;;;;;;;;;5116170;27;20119;-76
2021/04/28 02:07:02;;;;;;;18.45;9.77;;;;;;;;;;5097790;28;20487;-76
2021/04/28 02:09:28;;;;;;;21.23;8.93;;;;;;;;;;5115803;28;20073;-76
2021/04/28 02:11:54;;;;;;;25.85;10.18;;;;;;;;;;5115350;28;20074;-76
2021/04/28 02:14:22;;;;;;;24.77;9.27;;;;;;;;;;5116000;28;20023;-76
2021/04/28 02:16:49;;;;;;;16.88;9.35;;;;;;;;;;5115331;28;20026;-76
2021/04/28 02:19:15;;;;;;;19.95;8.77;;;;;;;;;;5115903;28;20020;-76
2021/04/28 02:21:46;;;;;;;22.73;9.50;;;;;;;;;;5114955;28;20058;-76
2021/04/28 02:24:15;;;;;;;20.92;9.23;;;;;;;;;;5115631;28;20026;-76
2021/04/28 02:26:41;;;;;;;20.48;9.43;;;;;;;;;;5097418;28;20023;-76
2021/04/28 02:29:07;;;;;;;23.63;10.20;;;;;;;;;;5115806;28;20028;-76
2021/04/28 02:31:34;;;;;;;23.38;9.95;;;;;;;;;;5115025;28;20057;-76
2021/04/28 02:34:01;;;;;;;18.67;8.82;;;;;;;;;;5097027;28;20383;-76
2021/04/28 02:36:27;;;;;;;11.85;8.02;;;;;;;;;;5115727;27;20023;-76
2021/04/28 02:38:58;;;;;;;18.05;8.65;;;;;;;;;;5115315;28;20023;-76
2021/04/28 02:41:25;;;;;;;20.52;8.60;;;;;;;;;;5115527;28;20027;-76
2021/04/28 02:43:51;;;;;;;18.40;9.32;;;;;;;;;;5115013;28;20118;-76
2021/04/28 02:46:18;;;;;;;16.10;8.45;;;;;;;;;;5115252;28;20023;-76
2021/04/28 02:48:47;;;;;;;19.10;8.80;;;;;;;;;;5115036;28;20097;-76
2021/04/28 02:51:13;;;;;;;15.38;8.40;;;;;;;;;;5115556;28;20062;-76
2021/04/28 02:53:41;;;;;;;18.52;8.50;;;;;;;;;;5114586;28;20027;-76
2021/04/28 02:56:07;;;;;;;18.17;8.95;;;;;;;;;;5114946;28;20036;-76
2021/04/28 02:58:33;;;;;;;23.88;9.98;;;;;;;;;;5114672;28;20032;-76
2021/04/28 03:00:59;;;;;;;18.73;9.15;;;;;;;;;;5114755;28;20043;-76
2021/04/28 03:03:26;;;;;;;15.65;8.85;;;;;;;;;;5114367;28;20441;-76
2021/04/28 03:05:53;;;;;;;18.25;8.55;;;;;;;;;;5115131;28;20475;-76
2021/04/28 03:08:19;;;;;;;21.38;9.43;;;;;;;;;;5114806;28;20028;-76
2021/04/28 03:10:46;;;;;;;19.02;9.63;;;;;;;;;;5096470;28;20027;-76
2021/04/28 03:13:13;;;;;;;16.73;9.27;;;;;;;;;;5114789;28;20106;-76
2021/04/28 03:15:39;;;;;;;18.00;9.35;;;;;;;;;;5096248;28;20390;-76
2021/04/28 03:18:05;;;;;;;27.77;10.07;;;;;;;;;;5096465;28;20023;-76
2021/04/28 03:20:32;;;;;;;21.05;9.50;;;;;;;;;;5114721;28;20022;-76
2021/04/28 03:22:59;;;;;;;15.65;8.52;;;;;;;;;;5096123;28;20114;-76
2021/04/28 03:25:25;;;;;;;15.50;8.45;;;;;;;;;;5114460;28;20029;-76
2021/04/28 03:27:51;;;;;;;23.55;9.68;;;;;;;;;;5113792;28;20028;-76
2021/04/28 03:30:17;;;;;;;18.83;9.10;;;;;;;;;;5095891;28;20505;-76
2021/04/28 03:32:43;;;;;;;16.73;9.43;;;;;;;;;;5114475;28;20145;-76
2021/04/28 03:35:10;;;;;;;20.00;8.95;;;;;;;;;;5114141;28;20073;-76
2021/04/28 03:37:37;;;;;;;19.20;8.98;;;;;;;;;;5113991;28;20074;-76
2021/04/28 03:40:04;;;;;;;18.73;9.55;;;;;;;;;;5096158;28;20116;-76
2021/04/28 03:42:30;;;;;;;20.02;8.85;;;;;;;;;;5095991;28;20027;-76
2021/04/28 03:44:56;;;;;;;17.67;8.95;;;;;;;;;;5114216;28;20028;-76
2021/04/28 03:47:22;;;;;;;20.63;8.65;;;;;;;;;;5114148;28;20435;-76
2021/04/28 03:49:49;;;;;;;20.75;8.65;;;;;;;;;;5113832;28;20491;-76
2021/04/28 03:52:15;;;;;;;18.05;8.25;;;;;;;;;;5095239;28;20023;-76
2021/04/28 03:54:41;;;;;;;17.67;8.55;;;;;;;;;;5113977;28;20024;-76
2021/04/28 03:57:07;;;;;;;15.27;8.95;;;;;;;;;;5113512;28;20035;-76
2021/04/28 03:59:34;;;;;;;16.65;9.15;;;;;;;;;;5095542;28;20046;-76
2021/04/28 04:02:00;;;;;;;16.80;8.77;;;;;;;;;;5113126;28;20027;-76
2021/04/28 04:04:26;;;;;;;18.42;8.35;;;;;;;;;;5106116;28;20027;-76
2021/04/28 04:06:52;;;;;;;15.27;8.57;;;;;;;;;;5114131;28;20031;-76
2021/04/28 04:09:18;;;;;;;15.63;9.45;;;;;;;;;;5113847;28;20024;-76
2021/04/28 04:11:45;;;;;;;14.10;7.00;;;;;;;;;;5094637;28;20027;-76
2021/04/28 04:14:11;;;;;;;21.05;6.80;;;;;;;;;;5113705;28;20483;-76
2021/04/28 04:16:37;;;;;;;16.45;7.45;;;;;;;;;;5095155;28;20392;-76
2021/04/28 04:19:03;;;;;;;15.88;7.72;;;;;;;;;;5114098;28;20433;-76
2021/04/28 04:21:30;;;;;;;16.80;7.15;;;;;;;;;;5113040;28;20034;-76
2021/04/28 04:23:56;;;;;;;17.48;7.88;;;;;;;;;;5113382;28;20074;-76
2021/04/28 04:26:22;;;;;;;20.10;7.60;;;;;;;;;;5113238;28;20023;-76
2021/04/28 04:28:48;;;;;;;17.73;8.05;;;;;;;;;;5113965;28;20031;-77
2021/04/28 04:31:14;;;;;;;14.13;7.10;;;;;;;;;;5096662;28;20059;-78
2021/04/28 04:33:40;;;;;;;19.38;7.97;;;;;;;;;;5111212;28;20023;-76
2021/04/28 04:36:07;;;;;;;18.38;8.50;;;;;;;;;;5113011;28;20450;-76
2021/04/28 04:38:33;;;;;;;16.35;8.07;;;;;;;;;;5112991;27;20109;-75
2021/04/28 04:40:59;;;;;;;16.10;6.75;;;;;;;;;;5097049;28;20027;-77
2021/04/28 04:43:25;;;;;;;14.98;6.88;;;;;;;;;;5117350;28;20035;-77
2021/04/28 04:45:51;;;;;;;19.25;8.15;;;;;;;;;;5116214;28;20023;-77
2021/04/28 04:48:17;;;;;;;20.90;7.80;;;;;;;;;;5114906;28;20068;-78
2021/04/28 04:50:43;;;;;;;16.65;7.90;;;;;;;;;;5114483;28;20023;-77
2021/04/28 04:53:09;;;;;;;29.90;17.35;;;;;;;;;;5114309;28;20111;-80
2021/04/28 04:55:36;;;;;;;21.50;10.02;;;;;;;;;;5099695;28;20020;-78
2021/04/28 04:58:02;;;;;;;20.08;9.63;;;;;;;;;;5115769;28;20386;-78
2021/04/28 05:00:29;;;;;;;22.30;9.02;;;;;;;;;;5114423;28;20026;-78
2021/04/28 05:02:55;;;;;;;30.92;9.90;;;;;;;;;;5115476;28;20023;-78
2021/04/28 05:05:21;;;;;;;15.45;8.63;;;;;;;;;;5116220;28;20027;-78
2021/04/28 05:07:47;;;;;;;113.32;96.78;;;;;;;;;;5116595;28;20394;-79
2021/04/28 05:10:14;;;;;;;21.50;10.93;;;;;;;;;;5098309;28;20450;-80
2021/04/28 05:12:45;;;;;;;20.10;9.40;;;;;;;;;;5116971;28;20553;-80
2021/04/28 05:15:11;;;;;;;19.98;8.52;;;;;;;;;;5117691;28;20119;-80
2021/04/28 05:17:37;;;;;;;17.88;9.80;;;;;;;;;;5118770;28;20035;-80
2021/04/28 05:20:03;;;;;;;18.20;7.75;;;;;;;;;;5099779;28;20028;-80
2021/04/28 05:22:30;;;;;;;20.38;7.70;;;;;;;;;;5117042;28;20494;-79
2021/04/28 05:24:56;;;;;;;14.80;7.72;;;;;;;;;;5117710;28;20078;-79
2021/04/28 05:27:25;;;;;;;13.85;6.70;;;;;;;;;;5098674;28;20028;-79
2021/04/28 05:29:52;;;;;;;15.82;7.00;;;;;;;;;;5116510;28;20099;-80
2021/04/28 05:32:18;;;;;;;13.55;7.07;;;;;;;;;;5100188;28;20067;-83
2021/04/28 05:34:44;;;;;;;20.05;7.32;;;;;;;;;;5117540;28;20077;-78
2021/04/28 05:37:17;;;;;;;18.77;6.78;;;;;;;;;;5116936;27;20043;-78
2021/04/28 05:39:43;;;;;;;14.23;6.78;;;;;;;;;;5116780;28;20032;-78
2021/04/28 05:42:09;;;;;;;21.92;7.28;;;;;;;;;;5115427;28;20023;-78
2021/04/28 05:44:36;;;;;;;15.63;7.50;;;;;;;;;;5116025;28;20020;-78
2021/04/28 05:47:02;;;;;;;15.88;6.75;;;;;;;;;;5115898;28;20023;-78
2021/04/28 05:49:28;;;;;;;21.52;6.88;;;;;;;;;;5116865;28;20026;-78
2021/04/28 05:51:54;;;;;;;13.48;5.57;;;;;;;;;;5116839;28;20032;-78
2021/04/28 05:54:20;;;;;;;12.60;6.35;;;;;;;;;;5119961;28;20483;-78
2021/04/28 05:56:47;;;;;;;16.27;6.00;;;;;;;;;;5119507;28;20102;-78
2021/04/28 05:59:13;;;;;;;15.48;6.07;;;;;;;;;;5119949;28;20031;-78
2021/04/28 06:01:39;;;;;;;16.75;5.30;;;;;;;;;;5119796;28;20023;-78
2021/04/28 06:04:05;;;;;;;15.77;6.20;;;;;;;;;;5119536;28;20077;-78
2021/04/28 06:06:31;;;;;;;17.25;7.15;;;;;;;;;;5120307;28;20030;-78
2021/04/28 06:08:57;;;;;;;16.17;5.55;;;;;;;;;;5120201;28;20024;-78
2021/04/28 06:11:23;;;;;;;12.98;5.07;;;;;;;;;;5119698;28;20055;-78
2021/04/28 06:13:49;;;;;;;13.20;5.65;;;;;;;;;;5101627;28;20089;-78
2021/04/28 06:16:16;;;;;;;10.45;5.00;;;;;;;;;;5119620;28;20031;-78
2021/04/28 06:18:42;;;;;;;14.05;5.65;;;;;;;;;;5119383;28;20482;-78
2021/04/28 06:21:08;;;;;;;12.52;5.93;;;;;;;;;;5101068;28;20023;-78
2021/04/28 06:23:35;;;;;;;17.08;6.22;;;;;;;;;;5118728;28;20031;-78
2021/04/28 06:26:01;;;;;;;15.20;5.75;;;;;;;;;;5119674;28;20041;-78
2021/04/28 06:28:27;;;;;;;14.32;5.82;;;;;;;;;;5120008;28;20019;-78
2021/04/28 06:30:53;;;;;;;10.90;5.97;;;;;;;;;;5119455;28;20107;-78
2021/04/28 06:33:20;;;;;;;11.00;5.10;;;;;;;;;;5117872;28;20022;-78
2021/04/28 06:35:46;;;;;;;13.43;6.10;;;;;;;;;;5119106;28;20055;-78
2021/04/28 06:38:12;;;;;;;14.60;5.85;;;;;;;;;;5119548;28;20123;-78
2021/04/28 06:40:38;;;;;;;9.52;5.80;;;;;;;;;;5119192;28;20028;-78
2021/04/28 06:43:05;;;;;;;15.18;5.70;;;;;;;;;;5119122;28;20448;-78
2021/04/28 06:45:31;;;;;;;17.35;5.47;;;;;;;;;;5118812;28;20536;-78
2021/04/28 06:47:57;;;;;;;15.18;5.75;;;;;;;;;;5118997;28;20085;-78
2021/04/28 06:50:24;;;;;;;13.15;5.47;;;;;;;;;;5118926;28;20023;-78
2021/04/28 06:52:51;;;;;;;14.32;5.47;;;;;;;;;;5118489;28;20027;-78
2021/04/28 06:55:17;;;;;;;13.50;4.93;;;;;;;;;;5119344;28;20470;-78
2021/04/28 06:57:43;;;;;;;11.50;5.07;;;;;;;;;;5117726;28;20033;-78
2021/04/28 07:00:19;;;;;;;15.45;6.32;;;;;;;;;;5118534;28;20024;-78
2021/04/28 07:02:45;;;;;;;14.82;5.85;;;;;;;;;;5117897;27;20024;-78
2021/04/28 07:05:11;;;;;;;18.10;6.07;;;;;;;;;;5120533;28;20027;-78
2021/04/28 07:07:37;;;;;;;18.27;6.40;;;;;;;;;;5095372;28;20034;-78
2021/04/28 07:10:04;;;;;;;9.32;6.35;;;;;;;;;;5112250;28;20623;-79
2021/04/28 07:12:30;;;;;;;12.48;5.07;;;;;;;;;;5115366;28;20043;-78
2021/04/28 07:14:56;;;;;;;15.55;5.50;;;;;;;;;;5101338;28;20118;-79
2021/04/28 07:17:22;;;;;;;12.43;5.68;;;;;;;;;;5096780;28;20038;-78
2021/04/28 07:19:48;;;;;;;17.10;6.70;;;;;;;;;;5116428;28;20415;-79
2021/04/28 07:22:15;;;;;;;14.45;6.68;;;;;;;;;;5113938;28;20024;-78
2021/04/28 07:24:41;;;;;;;21.67;6.75;;;;;;;;;;5115631;28;20027;-78
2021/04/28 07:27:07;;;;;;;12.93;5.40;;;;;;;;;;5085447;28;20380;-78
2021/04/28 07:29:33;;;;;;;12.75;6.00;;;;;;;;;;5122511;27;20089;-78
2021/04/28 07:32:02;;;;;;;12.45;5.65;;;;;;;;;;5087907;28;20024;-79
2021/04/28 07:34:28;;;;;;;12.85;6.45;;;;;;;;;;5115887;28;20024;-79
2021/04/28 07:36:54;;;;;;;15.32;5.65;;;;;;;;;;5080640;28;20050;-76
2021/04/28 07:39:20;;;;;;;12.70;6.10;;;;;;;;;;5085806;28;20023;-77
2021/04/28 07:41:47;;;;;;;19.40;6.55;;;;;;;;;;5083331;28;20099;-78
2021/04/28 07:44:15;;;;;;;13.10;5.43;;;;;;;;;;5104504;27;20043;-78
2021/04/28 07:46:42;;;;;;;18.00;5.75;;;;;;;;;;5104697;28;20098;-76
2021/04/28 07:49:08;;;;;;;11.77;5.72;;;;;;;;;;5079798;28;20566;-77
2021/04/28 07:51:35;;;;;;;16.00;7.65;;;;;;;;;;5108381;28;20027;-77
2021/04/28 07:54:01;;;;;;;20.13;7.90;;;;;;;;;;5108310;28;20023;-77
2021/04/28 07:56:28;;;;;;;18.30;6.45;;;;;;;;;;5098929;28;20030;-79
2021/04/28 07:58:54;;;;;;;16.50;8.23;;;;;;;;;;5112984;27;20024;-79
2021/04/28 08:01:21;;;;;;;13.70;6.50;;;;;;;;;;5110082;28;20027;-78
2021/04/28 08:03:47;;;;;;;17.38;7.32;;;;;;;;;;5102935;27;20043;-78
2021/04/28 08:06:13;;;;;;;16.05;6.05;;;;;;;;;;5078695;28;20024;-78
2021/04/28 08:08:39;;;;;;;14.40;6.78;;;;;;;;;;5113212;28;20051;-78
2021/04/28 08:11:05;;;;;;;16.10;7.35;;;;;;;;;;5110750;28;20129;-78
2021/04/28 08:13:32;;;;;;;12.48;6.55;;;;;;;;;;5117865;27;20031;-79
2021/04/28 08:16:00;;;;;;;17.60;7.50;;;;;;;;;;5107596;28;20070;-79
2021/04/28 08:18:27;;;;;;;18.45;9.05;;;;;;;;;;5098964;28;20035;-79
2021/04/28 08:20:54;;;;;;;17.00;8.50;;;;;;;;;;5098187;27;20567;-78
2021/04/28 08:23:20;;;;;;;17.30;8.30;;;;;;;;;;5114532;28;20039;-79
2021/04/28 08:25:46;;;;;;;25.45;7.97;;;;;;;;;;5115208;28;20631;-77
2021/04/28 08:28:12;;;;;;;22.15;8.50;;;;;;;;;;5107799;28;20058;-77
2021/04/28 08:30:39;;;;;;;22.98;8.32;;;;;;;;;;5107827;28;20023;-78
2021/04/28 08:33:07;;;;;;;19.02;9.23;;;;;;;;;;5108215;28;20031;-78
2021/04/28 08:35:33;;;;;;;24.02;10.18;;;;;;;;;;5097712;28;20023;-79
2021/04/28 08:37:59;;;;;;;28.02;10.38;;;;;;;;;;5117185;27;20051;-78
2021/04/28 08:40:25;;;;;;;19.90;9.05;;;;;;;;;;5113544;28;20098;-77
2021/04/28 08:42:51;;;;;;;23.98;9.07;;;;;;;;;;5103507;28;20460;-77
2021/04/28 08:45:18;;;;;;;20.08;8.07;;;;;;;;;;5107411;28;20019;-76
2021/04/28 08:47:44;;;;;;;13.75;7.53;;;;;;;;;;5109765;28;20467;-76
2021/04/28 08:50:11;;;;;;;24.05;8.52;;;;;;;;;;5104855;28;20019;-76
2021/04/28 08:52:38;;;;;;;20.23;9.40;;;;;;;;;;5111221;28;20085;-76
2021/04/28 08:55:05;;;;;;;20.25;8.25;;;;;;;;;;5113824;28;20023;-78
2021/04/28 08:57:31;;;;;;;18.25;8.40;;;;;;;;;;5095255;28;20058;-77
2021/04/28 08:59:57;;;;;;;16.92;7.93;;;;;;;;;;5106387;28;20050;-77
2021/04/28 09:02:26;;;;;;;18.70;7.07;;;;;;;;;;5125112;28;20037;-78
2021/04/28 09:05:07;;;;;;;19.83;7.22;;;;;;;;;;5111125;28;20028;-78
2021/04/28 09:07:33;;;;;;;18.67;7.30;;;;;;;;;;5109888;28;20069;-78
2021/04/28 09:10:00;;;;;;;15.95;7.78;;;;;;;;;;5096954;28;20031;-79
2021/04/28 09:12:27;;;;;;;16.92;7.70;;;;;;;;;;5115881;28;20027;-79
2021/04/28 09:14:53;;;;;;;15.43;7.32;;;;;;;;;;5115787;28;20031;-79
2021/04/28 09:17:19;;;;;;;19.35;7.03;;;;;;;;;;5101317;28;20024;-77
2021/04/28 09:19:53;;;;;;;14.43;7.30;;;;;;;;;;5110908;28;20035;-76
2021/04/28 09:22:21;;;;;;;17.52;7.97;;;;;;;;;;5108373;28;20118;-77
2021/04/28 09:24:47;;;;;;;15.50;6.35;;;;;;;;;;5095203;28;20019;-76
2021/04/28 09:27:26;;;;;;;20.58;7.25;;;;;;;;;;5091744;28;20028;-79
2021/04/28 09:29:55;;;;;;;19.00;6.47;;;;;;;;;;5079579;28;20023;-80
2021/04/28 09:32:30;;;;;;;18.67;8.07;;;;;;;;;;5114806;28;20027;-78
2021/04/28 09:35:11;;;;;;;15.73;6.10;;;;;;;;;;5093974;28;20028;-78
2021/04/28 09:37:49;;;;;;;14.50;6.28;;;;;;;;;;5108186;27;20123;-76
2021/04/28 09:40:15;;;;;;;15.02;6.03;;;;;;;;;;5118972;27;20436;-77
2021/04/28 09:42:52;;;;;;;20.45;6.65;;;;;;;;;;5137261;27;20027;-78
2021/04/28 09:45:36;;;;;;;20.27;6.40;;;;;;;;;;5078114;28;20024;-78
2021/04/28 09:48:03;;;;;;;13.07;6.25;;;;;;;;;;5077511;28;20085;-79
2021/04/28 09:50:29;;;;;;;15.18;6.20;;;;;;;;;;5109538;27;20120;-79
2021/04/28 09:52:55;;;;;;;16.80;6.10;;;;;;;;;;5119833;27;20032;-79
2021/04/28 09:55:21;;;;;;;19.80;7.18;;;;;;;;;;5114233;28;20022;-79
2021/04/28 09:57:50;;;;;;;18.55;7.85;;;;;;;;;;5120042;28;20102;-78
2021/04/28 10:00:22;;;;;;;16.17;7.28;;;;;;;;;;5118901;28;20031;-79
2021/04/28 10:03:10;;;;;;;23.13;7.60;;;;;;;;;;5125769;28;20028;-79
2021/04/28 10:05:40;;;;;;;16.42;7.43;;;;;;;;;;5112125;28;20032;-80
2021/04/28 10:08:09;;;;;;;17.20;8.25;;;;;;;;;;5101716;28;20024;-78
2021/04/28 10:10:35;;;;;;;15.43;6.50;;;;;;;;;;5117231;28;20032;-79
2021/04/28 10:13:01;;;;;;;16.80;5.57;;;;;;;;;;5119077;28;20031;-79
2021/04/28 10:15:27;;;;;;;20.38;6.53;;;;;;;;;;5117770;28;20050;-79
2021/04/28 10:17:55;;;;;;;16.98;8.10;;;;;;;;;;5099907;27;20016;-78
2021/04/28 10:20:21;;;;;;;15.32;6.15;;;;;;;;;;5082406;28;20020;-77
2021/04/28 10:22:50;;;;;;;14.80;6.85;;;;;;;;;;5123369;27;20027;-77
2021/04/28 10:25:18;;;;;;;12.82;5.85;;;;;;;;;;5114626;28;20099;-77
2021/04/28 10:27:45;;;;;;;14.75;5.85;;;;;;;;;;5094394;28;20040;-77
2021/04/28 10:30:15;;;;;;;11.30;4.95;;;;;;;;;;5112600;28;20024;-78
2021/04/28 10:32:42;;;;;;;16.40;5.50;;;;;;;;;;5114044;28;20028;-78
2021/04/28 10:35:09;;;;;;;14.77;5.78;;;;;;;;;;5106315;28;20025;-78
2021/04/28 10:37:37;;;;;;;12.35;5.63;;;;;;;;;;5096136;28;20047;-79
2021/04/28 10:40:10;;;;;;;13.48;5.40;;;;;;;;;;5117802;28;20046;-78
2021/04/28 10:42:37;;;;;;;17.08;5.57;;;;;;;;;;5115265;28;20091;-78
2021/04/28 10:45:04;;;;;;;13.43;4.95;;;;;;;;;;5111958;28;20034;-78
2021/04/28 10:47:34;;;;;;;16.83;6.28;;;;;;;;;;5090562;28;20020;-78
2021/04/28 10:50:21;;;;;;;14.50;6.00;;;;;;;;;;5111797;28;20020;-77
2021/04/28 10:52:54;;;;;;;16.13;5.53;;;;;;;;;;5096690;28;20040;-77
2021/04/28 10:55:38;;;;;;;10.93;5.13;;;;;;;;;;5114579;28;20016;-77
2021/04/28 10:58:24;;;;;;;17.17;5.30;;;;;;;;;;5115225;28;20094;-79
2021/04/28 11:00:54;;;;;;;13.65;4.95;;;;;;;;;;5114397;27;20030;-78
2021/04/28 11:03:29;;;;;;;15.25;5.05;;;;;;;;;;5136028;27;20128;-78
2021/04/28 11:05:58;;;;;;;11.90;5.63;;;;;;;;;;5099304;28;20111;-77
2021/04/28 11:08:31;;;;;;;13.48;5.80;;;;;;;;;;5129399;27;20398;-79
2021/04/28 11:10:58;;;;;;;11.73;5.18;;;;;;;;;;5118462;27;20066;-79
2021/04/28 11:13:27;;;;;;;12.32;5.28;;;;;;;;;;5119055;28;20485;-78
2021/04/28 11:15:54;;;;;;;16.90;5.78;;;;;;;;;;5090784;28;20440;-78
2021/04/28 11:18:26;;;;;;;13.38;5.70;;;;;;;;;;5094669;28;20024;-77
2021/04/28 11:21:11;;;;;;;9.93;4.60;;;;;;;;;;5095392;28;20036;-78
2021/04/28 11:23:38;;;;;;;12.40;5.70;;;;;;;;;;5075720;28;20024;-77
2021/04/28 11:26:22;;;;;;;12.43;4.95;;;;;;;;;;5117058;28;20031;-79
2021/04/28 11:28:55;;;;;;;15.90;6.43;;;;;;;;;;5110573;28;20085;-79
2021/04/28 11:31:38;;;;;;;14.23;6.57;;;;;;;;;;5100960;28;20028;-78
2021/04/28 11:34:23;;;;;;;14.35;5.47;;;;;;;;;;5116569;28;20030;-79
2021/04/28 11:36:53;;;;;;;15.63;5.05;;;;;;;;;;5100515;28;20048;-80
2021/04/28 11:39:37;;;;;;;13.00;4.47;;;;;;;;;;5117002;28;20102;-78
2021/04/28 11:42:13;;;;;;;12.05;5.05;;;;;;;;;;5095567;28;20494;-78
2021/04/28 11:44:45;;;;;;;12.40;5.47;;;;;;;;;;5097347;28;20092;-79
2021/04/28 11:47:13;;;;;;;15.32;5.22;;;;;;;;;;5079314;28;20052;-78
2021/04/28 11:49:50;;;;;;;19.05;5.40;;;;;;;;;;5110892;28;20088;-79
2021/04/28 11:52:17;;;;;;;12.48;5.00;;;;;;;;;;5117402;28;20099;-78
2021/04/28 11:54:44;;;;;;;13.20;5.15;;;;;;;;;;5110722;28;20114;-78
2021/04/28 11:57:10;;;;;;;11.63;4.97;;;;;;;;;;5102499;28;20058;-76
2021/04/28 11:59:38;;;;;;;13.20;4.88;;;;;;;;;;5120642;27;20057;-75
2021/04/28 12:02:07;;;;;;;8.15;4.80;;;;;;;;;;5114136;27;20474;-76
2021/04/28 12:04:34;;;;;;;12.07;4.65;;;;;;;;;;5111703;27;20085;-76
2021/04/28 12:07:00;;;;;;;16.35;4.80;;;;;;;;;;5115111;27;20060;-77
2021/04/28 12:09:35;;;;;;;14.95;5.30;;;;;;;;;;5095216;28;20135;-77
2021/04/28 12:12:17;;;;;;;15.38;4.47;;;;;;;;;;5085220;28;20396;-77
2021/04/28 12:14:46;;;;;;;15.90;5.05;;;;;;;;;;5123057;27;20077;-75
2021/04/28 12:17:12;;;;;;;11.20;4.68;;;;;;;;;;5094915;28;20110;-76
2021/04/28 12:19:39;;;;;;;9.45;4.57;;;;;;;;;;5113111;27;20120;-77
2021/04/28 12:22:05;;;;;;;13.98;4.38;;;;;;;;;;5114176;27;20395;-77
2021/04/28 12:24:31;;;;;;;13.40;4.30;;;;;;;;;;5101891;28;20028;-76
2021/04/28 12:27:06;;;;;;;7.60;4.03;;;;;;;;;;5126679;27;20028;-77
2021/04/28 12:29:33;;;;;;;9.00;4.80;;;;;;;;;;5112634;28;20467;-77
2021/04/28 12:31:59;;;;;;;10.75;4.65;;;;;;;;;;5109711;27;20118;-77
2021/04/28 12:34:25;;;;;;;14.45;5.25;;;;;;;;;;5105556;28;20035;-76
2021/04/28 12:36:51;;;;;;;9.32;4.20;;;;;;;;;;5092431;28;20059;-77
2021/04/28 12:39:25;;;;;;;12.13;5.28;;;;;;;;;;5099061;28;20031;-77
2021/04/28 12:41:51;;;;;;;12.55;4.90;;;;;;;;;;5085747;28;20105;-76
2021/04/28 12:44:18;;;;;;;9.98;5.20;;;;;;;;;;5089382;28;20501;-76
2021/04/28 12:46:45;;;;;;;12.23;4.47;;;;;;;;;;5112680;28;20031;-78
2021/04/28 12:49:11;;;;;;;6.18;3.53;;;;;;;;;;5113179;28;20023;-76
2021/04/28 12:51:46;;;;;;;9.38;4.20;;;;;;;;;;5102742;28;20091;-75
2021/04/28 12:54:13;;;;;;;10.65;4.07;;;;;;;;;;5108831;28;20072;-76
2021/04/28 12:56:43;;;;;;;8.90;4.20;;;;;;;;;;5094404;28;20024;-76
2021/04/28 12:59:16;;;;;;;13.65;4.25;;;;;;;;;;5095843;28;20024;-76
2021/04/28 13:01:42;;;;;;;;;;;;;;;;;;5111823;27;20027;-75
2021/04/28 13:04:18;;;;;;;13.27;4.00;;;;;;;;;;5115948;27;19908;-76
2021/04/28 13:06:44;;;;;;;9.95;5.28;;;;;;;;;;5090180;28;20038;-75
2021/04/28 13:09:15;;;;;;;9.68;4.00;;;;;;;;;;5098095;28;20030;-75
2021/04/28 13:11:44;;;;;;;10.43;4.32;;;;;;;;;;5115749;28;20028;-74
2021/04/28 13:14:17;;;;;;;12.32;4.97;;;;;;;;;;5094036;27;20015;-75
2021/04/28 13:16:45;;;;;;;14.85;5.93;;;;;;;;;;5120794;27;20115;-77
2021/04/28 13:19:28;;;;;;;15.57;5.88;;;;;;;;;;5108141;28;20553;-77
2021/04/28 13:22:04;;;;;;;13.13;4.47;;;;;;;;;;5095116;28;20028;-75
2021/04/28 13:24:31;;;;;;;12.15;4.28;;;;;;;;;;5114045;28;20024;-75
2021/04/28 13:27:01;;;;;;;11.88;4.45;;;;;;;;;;5105976;28;20027;-76
2021/04/28 13:29:45;;;;;;;9.52;4.85;;;;;;;;;;5123572;27;20023;-75
2021/04/28 13:32:11;;;;;;;;;;;;;;;;;;5105257;27;20036;-77
2021/04/28 13:34:40;;;;;;;11.38;4.90;;;;;;;;;;5095466;28;20276;-78
2021/04/28 13:37:13;;;;;;;9.93;4.90;;;;;;;;;;5117319;27;20504;-78
2021/04/28 13:39:39;;;;;;;9.45;4.57;;;;;;;;;;5105948;28;20024;-80
2021/04/28 13:42:06;;;;;;;12.70;4.18;;;;;;;;;;5112484;28;20091;-79
2021/04/28 13:44:35;;;;;;;12.95;5.03;;;;;;;;;;5099952;28;20024;-80
2021/04/28 13:47:02;;;;;;;14.20;5.72;;;;;;;;;;5101337;28;20024;-79
2021/04/28 13:49:28;;;;;;;10.18;4.80;;;;;;;;;;5117486;28;20051;-80
2021/04/28 13:51:55;;;;;;;13.38;5.00;;;;;;;;;;5107985;28;20031;-77
2021/04/28 13:54:21;;;;;;;9.68;3.92;;;;;;;;;;5114169;28;20623;-78
2021/04/28 13:56:49;;;;;;;14.75;4.72;;;;;;;;;;5102866;28;20028;-78
2021/04/28 13:59:15;;;;;;;10.07;4.60;;;;;;;;;;5076669;28;20032;-80
2021/04/28 14:01:41;;;;;;;11.23;5.22;;;;;;;;;;5102668;28;20363;-78
2021/04/28 14:04:07;;;;;;;25.02;13.30;;;;;;;;;;5110638;28;20016;-79
2021/04/28 14:06:33;;;;;;;13.15;5.68;;;;;;;;;;5118438;28;20080;-80
2021/04/28 14:09:02;;;;;;;18.20;6.15;;;;;;;;;;5107076;27;20707;-81
2021/04/28 14:11:28;;;;;;;13.40;5.10;;;;;;;;;;5139864;27;20098;-80
2021/04/28 14:13:54;;;;;;;15.45;4.78;;;;;;;;;;5132456;27;20015;-78
2021/04/28 14:16:20;;;;;;;19.70;5.72;;;;;;;;;;5126018;27;20016;-78
2021/04/28 14:18:47;;;;;;;17.02;6.05;;;;;;;;;;5101816;28;20449;-77
2021/04/28 14:21:13;;;;;;;11.80;4.32;;;;;;;;;;5099140;28;20046;-78
2021/04/28 14:23:40;;;;;;;9.05;4.70;;;;;;;;;;5094678;28;20043;-77
2021/04/28 14:26:06;;;;;;;9.88;4.65;;;;;;;;;;5109690;28;20027;-78
2021/04/28 14:28:32;;;;;;;13.25;5.60;;;;;;;;;;5114187;27;20065;-77
2021/04/28 14:30:58;;;;;;;15.13;4.82;;;;;;;;;;5113417;27;20178;-77
2021/04/28 14:33:25;;;;;;;15.00;5.38;;;;;;;;;;5114647;28;20455;-77
2021/04/28 14:35:51;;;;;;;12.60;4.70;;;;;;;;;;5110249;28;20031;-77